Time;durP1;ratioP1;P1;durP2;ratioP2;P2;SDS_P1;SDS_P2;PMS_P1;PMS_P2;Temp;Humidity;BMP_temperature;BMP_pressure;BME280_temperature;BME280_humidity;BME280_pressure;Samples;Min_cycle;Max_cycle;Signal;HPM_P1;HPM_P2
2022/04/01 00:01:21;;;;;;;19.55;8.57;;;11.10;88.70;;;;;;5080517;28;20024;-85
2022/04/01 00:03:47;;;;;;;14.63;8.98;;;11.30;89.30;;;;;;5081812;28;20028;-85
2022/04/01 00:06:12;;;;;;;14.77;9.85;;;11.10;90.10;;;;;;5088851;28;20476;-85
2022/04/01 00:08:38;;;;;;;16.08;9.23;;;11.10;90.10;;;;;;5089166;28;20081;-85
2022/04/01 00:11:04;;;;;;;14.98;9.10;;;11.10;90.10;;;;;;5089482;28;20028;-84
2022/04/01 00:13:30;;;;;;;16.38;9.38;;;11.20;90.20;;;;;;5088131;28;20497;-84
2022/04/01 00:15:56;;;;;;;13.50;9.73;;;11.10;90.30;;;;;;5087798;28;20070;-84
2022/04/01 00:18:22;;;;;;;16.48;9.45;;;11.20;90.30;;;;;;5087913;28;20515;-84
2022/04/01 00:20:47;;;;;;;16.25;10.32;;;11.20;90.70;;;;;;5072099;28;20056;-84
2022/04/01 00:23:14;;;;;;;16.50;9.50;;;11.30;91.00;;;;;;5091186;28;20020;-84
2022/04/01 00:25:42;;;;;;;16.92;10.02;;;11.30;91.20;;;;;;5087407;28;20059;-85
2022/04/01 00:28:08;;;;;;;15.90;10.63;;;11.20;91.40;;;;;;5087655;28;20030;-84
2022/04/01 00:30:34;;;;;;;15.98;9.30;;;11.10;92.00;;;;;;5087807;28;20028;-84
2022/04/01 00:33:00;;;;;;;15.02;9.82;;;11.10;92.80;;;;;;5087828;28;20031;-85
2022/04/01 00:35:27;;;;;;;13.80;9.00;;;11.10;92.80;;;;;;5092289;28;20542;-85
2022/04/01 00:37:52;;;;;;;14.82;8.52;;;11.00;92.90;;;;;;5091989;28;20385;-84
2022/04/01 00:40:20;;;;;;;14.63;8.90;;;11.20;92.60;;;;;;5092994;28;20106;-84
2022/04/01 00:42:45;;;;;;;13.98;8.60;;;11.10;92.60;;;;;;5091779;28;20032;-85
2022/04/01 00:45:12;;;;;;;15.05;9.45;;;11.10;92.90;;;;;;5091505;28;20542;-85
2022/04/01 00:47:38;;;;;;;14.38;9.98;;;11.00;92.90;;;;;;5093261;28;20062;-85
2022/04/01 00:50:05;;;;;;;13.93;8.63;;;11.00;93.10;;;;;;5092977;28;20389;-85
2022/04/01 00:52:32;;;;;;;15.52;9.18;;;11.10;93.20;;;;;;5090776;28;20020;-85
2022/04/01 00:54:59;;;;;;;15.20;8.85;;;11.10;93.60;;;;;;5091416;28;20481;-85
2022/04/01 00:57:26;;;;;;;15.50;9.02;;;11.00;93.50;;;;;;5090983;28;20028;-85
2022/04/01 00:59:54;;;;;;;14.15;9.82;;;11.00;93.90;;;;;;5091120;28;20024;-85
2022/04/01 01:02:20;;;;;;;15.32;9.50;;;11.00;93.70;;;;;;5094620;28;20027;-85
2022/04/01 01:04:46;;;;;;;17.88;9.60;;;11.00;94.00;;;;;;5092449;28;20111;-85
2022/04/01 01:07:13;;;;;;;13.63;9.23;;;10.90;94.30;;;;;;5090750;28;20168;-86
2022/04/01 01:09:39;;;;;;;15.32;9.60;;;10.90;94.40;;;;;;5090979;28;20039;-85
2022/04/01 01:12:06;;;;;;;16.42;9.65;;;10.90;94.60;;;;;;5090879;28;20029;-85
2022/04/01 01:14:34;;;;;;;15.02;9.68;;;10.90;94.50;;;;;;5093020;28;20192;-85
2022/04/01 01:17:02;;;;;;;15.70;8.70;;;10.90;94.50;;;;;;5092030;28;20032;-85
2022/04/01 01:19:30;;;;;;;18.10;9.77;;;10.90;94.60;;;;;;5091818;28;20028;-84
2022/04/01 01:21:57;;;;;;;15.80;8.45;;;10.90;94.70;;;;;;5090239;28;20024;-85
2022/04/01 01:24:36;;;;;;;14.40;9.00;;;10.90;94.80;;;;;;5090575;28;20042;-85
2022/04/01 01:27:05;;;;;;;17.75;9.13;;;11.00;94.80;;;;;;5091021;28;20056;-85
2022/04/01 01:29:33;;;;;;;14.45;8.48;;;11.00;94.60;;;;;;5092702;28;20016;-85
2022/04/01 01:32:01;;;;;;;14.55;8.98;;;10.90;94.80;;;;;;5091598;28;20032;-86
2022/04/01 01:34:28;;;;;;;17.35;8.25;;;10.90;95.00;;;;;;5090293;28;20032;-85
2022/04/01 01:36:56;;;;;;;13.95;8.20;;;11.00;95.20;;;;;;5090255;28;20024;-85
2022/04/01 01:39:22;;;;;;;14.77;8.43;;;11.00;95.30;;;;;;5090565;28;20553;-85
2022/04/01 01:41:49;;;;;;;14.13;8.25;;;11.00;95.40;;;;;;5056648;28;20563;-85
2022/04/01 01:44:17;;;;;;;14.18;8.75;;;10.90;95.80;;;;;;5075757;28;20024;-85
2022/04/01 01:46:43;;;;;;;12.43;7.20;;;10.80;96.30;;;;;;5088685;28;20078;-85
2022/04/01 01:49:09;;;;;;;9.73;5.85;;;10.70;97.10;;;;;;5090201;28;20051;-85
2022/04/01 01:57:04;;;;;;;7.53;4.43;;;10.80;97.90;;;;;;5076348;28;20405;-86
2022/04/01 01:59:29;;;;;;;10.07;4.93;;;10.80;98.40;;;;;;5092016;28;20390;-86
2022/04/01 02:01:55;;;;;;;7.75;5.00;;;10.70;98.80;;;;;;5091129;28;20066;-86
2022/04/01 02:04:22;;;;;;;7.53;4.30;;;10.70;99.10;;;;;;5089769;28;20028;-86
2022/04/01 02:06:49;;;;;;;8.13;4.40;;;10.60;98.90;;;;;;5071364;28;20027;-84
2022/04/01 02:09:15;;;;;;;6.93;4.40;;;10.60;98.80;;;;;;5090582;28;20031;-85
2022/04/01 02:11:42;;;;;;;7.40;4.38;;;10.60;99.40;;;;;;5091276;28;20401;-86
2022/04/01 02:14:07;;;;;;;7.72;4.35;;;10.40;99.50;;;;;;5091852;28;20028;-86
2022/04/01 02:16:33;;;;;;;7.68;4.50;;;10.50;99.90;;;;;;5089438;28;20038;-84
2022/04/01 02:18:59;;;;;;;5.95;3.55;;;10.30;99.90;;;;;;5089759;28;20024;-86
2022/04/01 02:21:25;;;;;;;6.55;3.22;;;10.30;99.90;;;;;;5089023;28;20448;-83
2022/04/01 02:23:51;;;;;;;6.82;3.38;;;10.20;99.90;;;;;;5089543;28;20012;-84
2022/04/01 02:26:17;;;;;;;8.60;3.17;;;10.30;99.90;;;;;;5088518;28;20459;-84
2022/04/01 02:28:44;;;;;;;6.30;3.17;;;10.30;99.90;;;;;;5089659;28;20562;-84
2022/04/01 02:31:18;;;;;;;4.32;2.30;;;10.30;99.90;;;;;;5089359;28;20125;-83
2022/04/01 02:33:44;;;;;;;4.65;1.70;;;10.10;99.90;;;;;;5089395;28;20040;-85
2022/04/01 02:36:10;;;;;;;1.45;1.10;;;10.10;99.90;;;;;;5088936;28;20539;-85
2022/04/01 02:38:39;;;;;;;1.67;1.23;;;10.20;99.80;;;;;;5091234;28;20062;-85
2022/04/01 02:41:07;;;;;;;4.60;1.30;;;10.20;99.40;;;;;;5089976;28;20110;-84
2022/04/01 02:43:33;;;;;;;1.70;0.90;;;10.20;99.80;;;;;;5088764;28;20097;-85
2022/04/01 02:45:59;;;;;;;1.15;0.93;;;10.10;98.80;;;;;;5088963;28;20028;-86
2022/04/01 02:48:26;;;;;;;1.73;0.95;;;10.00;98.40;;;;;;5088603;28;20410;-85
2022/04/01 02:50:51;;;;;;;1.63;0.98;;;10.00;98.10;;;;;;5070689;28;20127;-86
2022/04/01 02:53:17;;;;;;;1.33;0.90;;;9.90;98.10;;;;;;5092348;28;20173;-86
2022/04/01 02:55:44;;;;;;;0.70;0.70;;;9.80;97.80;;;;;;5088909;28;20560;-86
2022/04/01 02:58:10;;;;;;;1.80;0.90;;;9.80;97.80;;;;;;5088960;28;20038;-85
2022/04/01 03:00:37;;;;;;;1.83;0.98;;;9.80;98.00;;;;;;5088647;28;20027;-87
2022/04/01 03:03:08;;;;;;;3.55;1.15;;;9.80;97.20;;;;;;5088291;28;20451;-86
2022/04/01 03:05:35;;;;;;;1.13;1.02;;;9.70;97.40;;;;;;5090493;28;20500;-87
2022/04/01 03:08:01;;;;;;;1.90;1.10;;;9.50;97.20;;;;;;5090296;28;20469;-87
2022/04/01 03:10:27;;;;;;;1.77;1.02;;;9.50;96.80;;;;;;5088635;28;20119;-85
2022/04/01 03:12:53;;;;;;;2.38;1.13;;;9.50;96.10;;;;;;5088347;28;20042;-87
2022/04/01 03:15:19;;;;;;;1.40;1.00;;;9.40;95.40;;;;;;5088704;28;20036;-87
2022/04/01 03:17:45;;;;;;;2.75;1.17;;;9.40;95.20;;;;;;5088882;28;20031;-85
2022/04/01 03:20:14;;;;;;;2.22;1.30;;;9.30;93.60;;;;;;5091457;28;20032;-87
2022/04/01 03:22:49;;;;;;;3.05;1.30;;;9.30;93.20;;;;;;5088666;28;20097;-86
2022/04/01 03:25:18;;;;;;;2.75;1.58;;;9.30;92.80;;;;;;5088449;28;20028;-86
2022/04/01 03:27:45;;;;;;;2.97;1.50;;;9.20;92.80;;;;;;5088351;28;20036;-85
2022/04/01 03:30:11;;;;;;;2.85;1.58;;;9.10;92.80;;;;;;5088210;28;20028;-86
2022/04/01 03:32:38;;;;;;;2.17;1.30;;;9.10;93.00;;;;;;5090243;28;20016;-85
2022/04/01 03:35:07;;;;;;;3.55;1.42;;;9.10;92.80;;;;;;5088325;28;20396;-85
2022/04/01 03:37:34;;;;;;;3.67;1.80;;;8.90;93.00;;;;;;5087883;28;20111;-86
2022/04/01 03:40:00;;;;;;;3.67;1.88;;;8.90;92.60;;;;;;5088196;28;20036;-84
2022/04/01 03:42:30;;;;;;;3.50;1.67;;;8.80;92.20;;;;;;5088320;28;20020;-85
2022/04/01 03:45:06;;;;;;;3.08;1.63;;;8.80;92.30;;;;;;5088267;28;20119;-85
2022/04/01 03:47:44;;;;;;;4.85;1.98;;;8.90;92.20;;;;;;5089893;28;20051;-85
2022/04/01 03:50:11;;;;;;;3.58;1.70;;;8.80;92.40;;;;;;5089311;28;20457;-86
2022/04/01 03:52:37;;;;;;;3.42;1.60;;;8.80;92.00;;;;;;5088056;28;20059;-86
2022/04/01 03:55:06;;;;;;;3.35;1.55;;;8.70;92.00;;;;;;5090175;28;20067;-84
2022/04/01 03:57:40;;;;;;;2.28;1.48;;;8.60;92.10;;;;;;5088055;28;20028;-81
2022/04/01 04:00:12;;;;;;;2.90;1.60;;;8.70;92.30;;;;;;5088018;28;20047;-87
2022/04/01 04:02:40;;;;;;;4.13;1.55;;;8.70;92.10;;;;;;5089588;28;20058;-87
2022/04/01 04:05:07;;;;;;;4.25;1.85;;;8.60;92.10;;;;;;5090310;28;20073;-87
2022/04/01 04:07:33;;;;;;;2.28;1.55;;;8.60;92.50;;;;;;5088076;28;20370;-89
2022/04/01 04:09:59;;;;;;;2.00;1.33;;;8.50;92.50;;;;;;5089134;28;20043;-88
2022/04/01 04:12:30;;;;;;;2.33;1.45;;;8.50;92.50;;;;;;5073947;28;20543;-87
2022/04/01 04:14:57;;;;;;;2.70;1.35;;;8.40;92.20;;;;;;5091773;28;20067;-89
2022/04/01 04:17:37;;;;;;;3.22;1.52;;;8.40;92.30;;;;;;5094720;28;20198;-86
2022/04/01 04:20:09;;;;;;;2.00;1.25;;;8.40;92.50;;;;;;5093311;28;20031;-86
2022/04/01 04:22:43;;;;;;;1.92;1.30;;;8.40;92.70;;;;;;5091652;28;20032;-86
2022/04/01 04:25:14;;;;;;;3.30;1.30;;;8.30;92.80;;;;;;5091656;28;20016;-89
2022/04/01 04:27:58;;;;;;;1.67;1.10;;;8.20;93.20;;;;;;5091434;28;20058;-88
2022/04/01 04:30:32;;;;;;;2.92;1.35;;;8.30;93.50;;;;;;5091298;28;20043;-88
2022/04/01 04:33:07;;;;;;;1.65;1.30;;;8.20;93.60;;;;;;5091999;28;20382;-87
2022/04/01 04:35:38;;;;;;;1.42;1.17;;;8.30;93.80;;;;;;5093737;28;20024;-86
2022/04/01 04:38:05;;;;;;;1.90;1.15;;;8.20;93.70;;;;;;5093082;28;20048;-88
2022/04/01 04:40:32;;;;;;;2.67;1.20;;;8.10;93.70;;;;;;5091373;28;20071;-88
2022/04/01 04:42:58;;;;;;;1.38;1.00;;;8.10;93.80;;;;;;5091372;28;20119;-88
2022/04/01 04:45:26;;;;;;;2.33;1.00;;;8.10;93.90;;;;;;5090978;28;20016;-87
2022/04/01 04:47:52;;;;;;;1.35;1.00;;;8.10;94.10;;;;;;5091320;28;20098;-87
2022/04/01 04:50:19;;;;;;;2.40;0.90;;;8.10;94.20;;;;;;5094885;28;20409;-87
2022/04/01 04:52:56;;;;;;;1.70;1.20;;;8.00;94.20;;;;;;5091016;28;20503;-88
2022/04/01 04:55:23;;;;;;;1.77;1.10;;;8.00;94.30;;;;;;5091707;28;20064;-88
2022/04/01 04:57:51;;;;;;;1.30;1.10;;;8.00;94.60;;;;;;5091107;28;20114;-88
2022/04/01 05:00:19;;;;;;;1.75;1.30;;;8.00;94.60;;;;;;5090750;28;20028;-90
2022/04/01 05:03:12;;;;;;;4.97;1.25;;;8.00;94.30;;;;;;5091984;28;20071;-90
2022/04/01 05:05:47;;;;;;;1.63;1.17;;;8.00;94.40;;;;;;5091711;28;20107;-89
2022/04/01 05:08:55;;;;;;;2.95;1.17;;;8.10;94.40;;;;;;5093789;28;20036;-88
2022/04/01 05:11:39;;;;;;;2.28;1.23;;;8.20;94.30;;;;;;5090114;28;20417;-90
2022/04/01 05:14:16;;;;;;;3.63;1.50;;;8.40;93.40;;;;;;5091957;28;20103;-88
2022/04/01 05:16:50;;;;;;;2.78;1.45;;;8.50;93.20;;;;;;5090776;28;20023;-83
2022/04/01 05:19:24;;;;;;;2.03;1.10;;;8.50;93.10;;;;;;5090608;28;20032;-86
2022/04/01 05:22:03;;;;;;;0.98;0.98;;;8.50;93.20;;;;;;5090739;28;20031;-77
2022/04/01 05:24:48;;;;;;;1.52;1.10;;;8.50;92.90;;;;;;5090786;28;20138;-76
2022/04/01 05:27:37;;;;;;;1.23;1.10;;;8.50;92.70;;;;;;5090113;28;20027;-76
2022/04/01 05:30:04;;;;;;;1.52;1.20;;;8.50;93.20;;;;;;5075747;28;20086;-76
2022/04/01 05:32:37;;;;;;;1.77;1.10;;;8.40;93.10;;;;;;5092827;28;20023;-76
2022/04/01 05:35:04;;;;;;;2.10;1.30;;;8.40;93.60;;;;;;5092217;28;20074;-76
2022/04/01 05:37:33;;;;;;;2.03;1.25;;;8.40;94.20;;;;;;5090156;28;20040;-77
2022/04/01 05:40:00;;;;;;;1.27;1.08;;;8.10;94.50;;;;;;5090013;28;20024;-76
2022/04/01 05:42:26;;;;;;;0.93;0.90;;;8.20;94.70;;;;;;5089684;28;20027;-76
2022/04/01 05:44:52;;;;;;;1.15;1.05;;;8.20;94.80;;;;;;5090406;28;20035;-77
2022/04/01 05:47:21;;;;;;;2.00;1.25;;;8.30;95.30;;;;;;5089292;28;20544;-76
2022/04/01 05:49:47;;;;;;;1.23;0.90;;;8.20;95.20;;;;;;5092176;28;20039;-77
2022/04/01 05:52:14;;;;;;;1.80;0.90;;;8.20;95.00;;;;;;5089840;28;20523;-77
2022/04/01 05:54:41;;;;;;;1.10;0.98;;;8.30;95.00;;;;;;5089256;28;20063;-77
2022/04/01 05:57:08;;;;;;;0.95;0.80;;;8.30;94.90;;;;;;5089144;28;20020;-78
2022/04/01 05:59:34;;;;;;;1.63;0.90;;;8.30;94.90;;;;;;5091457;28;20623;-77
2022/04/01 06:02:03;;;;;;;1.00;0.88;;;8.30;94.90;;;;;;5072815;28;20035;-77
2022/04/01 06:05:15;;;;;;;1.52;1.10;;;8.20;94.80;;;;;;5089318;28;20392;-75
2022/04/01 06:07:47;;;;;;;0.88;0.80;;;8.50;93.80;;;;;;5089144;28;20025;-76
2022/04/01 06:10:42;;;;;;;1.70;0.82;;;8.70;93.10;;;;;;5089290;28;20051;-76
2022/04/01 06:13:31;;;;;;;1.60;0.90;;;8.90;93.00;;;;;;5008901;28;20096;-75
2022/04/01 06:16:10;;;;;;;1.02;0.90;;;9.00;92.70;;;;;;5008496;28;20076;-74
2022/04/01 06:19:06;;;;;;;1.88;0.90;;;9.10;92.70;;;;;;4991589;28;20037;-75
2022/04/01 06:21:42;;;;;;;1.00;0.90;;;9.10;92.10;;;;;;5008891;28;20137;-74
2022/04/01 06:24:12;;;;;;;1.60;1.00;;;9.20;91.70;;;;;;5010021;28;20101;-74
2022/04/01 06:26:58;;;;;;;2.38;1.30;;;9.20;91.20;;;;;;5008464;28;20034;-75
2022/04/01 06:29:37;;;;;;;4.03;2.15;;;9.30;90.60;;;;;;5005917;28;20029;-75
2022/04/01 06:32:07;;;;;;;3.42;1.77;;;9.30;87.00;;;;;;5008929;28;20040;-75
2022/04/01 06:34:48;;;;;;;1.42;1.10;;;9.40;83.60;;;;;;5008727;28;20049;-73
2022/04/01 06:37:23;;;;;;;1.38;1.10;;;9.50;79.90;;;;;;5008601;28;20038;-75
2022/04/01 06:40:12;;;;;;;2.05;1.00;;;9.50;78.60;;;;;;5008529;28;20088;-75
2022/04/01 06:42:39;;;;;;;1.20;0.90;;;9.60;77.90;;;;;;5008020;28;20502;-77
2022/04/01 06:45:08;;;;;;;1.42;1.00;;;9.60;77.10;;;;;;5009077;28;20033;-73
2022/04/01 06:47:39;;;;;;;1.30;0.95;;;9.70;76.80;;;;;;5009304;28;20087;-75
2022/04/01 06:50:05;;;;;;;1.08;0.93;;;9.70;76.40;;;;;;5049550;28;20044;-75
2022/04/01 06:52:31;;;;;;;2.28;1.10;;;9.80;76.10;;;;;;5088306;28;20043;-75
2022/04/01 06:54:57;;;;;;;4.13;1.00;;;9.80;75.60;;;;;;5103908;28;20130;-74
2022/04/01 06:57:23;;;;;;;1.90;1.08;;;9.70;75.60;;;;;;5087937;28;20028;-74
2022/04/01 06:59:49;;;;;;;1.92;1.27;;;9.70;74.80;;;;;;5088895;28;20105;-74
2022/04/01 07:02:15;;;;;;;2.42;0.90;;;9.70;74.60;;;;;;5088316;28;20476;-74
2022/04/01 07:04:41;;;;;;;1.30;1.10;;;9.70;74.60;;;;;;5070299;28;20038;-74
2022/04/01 07:07:07;;;;;;;0.95;0.90;;;9.90;73.90;;;;;;5088130;28;20028;-75
2022/04/01 07:09:35;;;;;;;2.88;1.13;;;9.90;73.60;;;;;;5088024;28;20031;-74
2022/04/01 07:12:01;;;;;;;1.33;0.98;;;9.90;73.90;;;;;;5089002;28;20066;-74
2022/04/01 07:14:33;;;;;;;1.63;1.02;;;9.90;73.40;;;;;;5091214;28;20036;-74
2022/04/01 07:16:59;;;;;;;2.88;1.08;;;9.80;72.80;;;;;;5091123;28;20457;-74
2022/04/01 07:19:25;;;;;;;1.25;1.08;;;10.00;72.30;;;;;;5088468;28;20032;-73
2022/04/01 07:21:51;;;;;;;1.10;1.00;;;10.10;72.20;;;;;;5088410;28;20026;-74
2022/04/01 07:24:17;;;;;;;2.53;1.00;;;10.20;71.90;;;;;;5088143;28;20035;-74
2022/04/01 07:26:44;;;;;;;1.48;1.00;;;10.30;71.40;;;;;;5088869;28;20061;-74
2022/04/01 07:29:11;;;;;;;2.42;1.30;;;10.40;71.10;;;;;;5090984;28;20032;-74
2022/04/01 07:34:36;;;;;;;2.03;1.23;;;10.50;69.00;;;;;;5087190;28;20480;-74
2022/04/01 07:37:03;;;;;;;3.15;1.35;;;10.50;68.50;;;;;;5087393;28;20028;-73
2022/04/01 07:39:29;;;;;;;3.58;1.27;;;10.50;67.90;;;;;;5086271;28;20048;-74
2022/04/01 07:41:54;;;;;;;2.72;1.40;;;10.40;67.90;;;;;;5088121;28;20048;-73
2022/04/01 07:44:21;;;;;;;5.13;1.85;;;10.30;68.00;;;;;;5092132;28;20111;-74
2022/04/01 07:46:48;;;;;;;2.78;1.30;;;10.30;69.10;;;;;;5093771;28;20063;-74
2022/04/01 07:49:14;;;;;;;3.03;1.40;;;10.30;68.00;;;;;;5092123;28;20465;-74
2022/04/01 07:51:40;;;;;;;3.72;1.40;;;10.30;68.50;;;;;;5092327;28;20051;-71
2022/04/01 07:54:06;;;;;;;3.42;1.33;;;10.40;67.00;;;;;;5091600;28;20041;-72
2022/04/01 07:56:31;;;;;;;2.17;1.13;;;10.40;67.10;;;;;;5093504;28;20062;-72
2022/04/01 07:58:58;;;;;;;1.33;1.20;;;10.40;66.50;;;;;;5074364;28;20067;-71
2022/04/01 08:01:24;;;;;;;1.70;1.08;;;10.40;67.10;;;;;;5091515;28;20046;-72
2022/04/01 08:03:50;;;;;;;2.83;1.10;;;10.50;66.20;;;;;;5091737;28;20481;-72
2022/04/01 08:06:16;;;;;;;2.35;1.10;;;10.40;65.20;;;;;;5091641;28;20039;-72
2022/04/01 08:08:41;;;;;;;0.95;0.82;;;10.40;65.70;;;;;;5074991;28;20030;-72
2022/04/01 08:11:07;;;;;;;2.33;1.30;;;10.50;65.30;;;;;;5093890;28;20499;-72
2022/04/01 08:13:33;;;;;;;1.80;1.00;;;10.40;64.20;;;;;;5091657;28;20558;-72
2022/04/01 08:16:00;;;;;;;4.15;1.13;;;10.50;64.80;;;;;;5091282;28;20421;-72
2022/04/01 08:18:27;;;;;;;3.92;1.10;;;10.50;63.50;;;;;;5091508;28;20084;-72
2022/04/01 08:20:53;;;;;;;2.17;1.10;;;10.50;63.90;;;;;;5091354;28;20074;-72
2022/04/01 08:23:19;;;;;;;2.15;1.38;;;10.50;63.50;;;;;;5090098;28;20503;-72
2022/04/01 08:25:48;;;;;;;1.95;1.10;;;10.70;62.90;;;;;;5091429;28;20103;-72
2022/04/01 08:28:14;;;;;;;3.38;1.10;;;10.90;63.30;;;;;;5092248;28;20103;-72
2022/04/01 08:30:41;;;;;;;2.22;1.00;;;10.90;63.10;;;;;;5090635;28;20034;-72
2022/04/01 08:33:07;;;;;;;2.30;1.30;;;11.10;63.40;;;;;;5092106;28;20029;-73
2022/04/01 08:35:33;;;;;;;3.47;1.02;;;11.10;63.80;;;;;;5093799;28;20055;-72
2022/04/01 08:37:59;;;;;;;1.40;1.02;;;11.20;62.40;;;;;;5073608;28;20012;-72
2022/04/01 08:40:27;;;;;;;1.35;0.95;;;11.20;62.30;;;;;;5091319;28;20039;-71
2022/04/01 08:42:53;;;;;;;1.75;0.98;;;11.30;62.30;;;;;;5091232;28;20147;-72
2022/04/01 08:45:20;;;;;;;2.47;1.10;;;11.30;62.10;;;;;;5091445;28;20107;-72
2022/04/01 08:47:48;;;;;;;2.13;1.20;;;11.30;62.40;;;;;;5092311;28;20397;-73
2022/04/01 08:50:14;;;;;;;2.33;1.20;;;11.30;62.80;;;;;;5093798;28;20068;-73
2022/04/01 08:52:40;;;;;;;3.22;1.10;;;11.20;61.20;;;;;;5072569;28;20491;-72
2022/04/01 08:55:09;;;;;;;2.42;1.08;;;11.10;60.60;;;;;;5090682;28;20028;-72
2022/04/01 08:57:39;;;;;;;1.63;0.95;;;11.10;60.70;;;;;;5090728;28;20039;-73
2022/04/01 09:00:16;;;;;;;4.03;1.10;;;11.10;60.60;;;;;;5091222;28;20512;-73
2022/04/01 09:02:44;;;;;;;3.33;1.10;;;11.30;62.50;;;;;;5091082;28;20147;-73
2022/04/01 09:05:10;;;;;;;2.63;1.17;;;11.40;60.40;;;;;;5092191;28;20397;-73
2022/04/01 09:07:36;;;;;;;2.88;0.95;;;11.50;61.00;;;;;;5091154;28;20024;-73
2022/04/01 09:10:08;;;;;;;1.90;1.05;;;11.50;60.10;;;;;;5090437;28;20047;-73
2022/04/01 09:12:35;;;;;;;4.13;1.10;;;11.90;59.40;;;;;;5090633;28;20028;-72
2022/04/01 09:15:03;;;;;;;2.58;1.08;;;12.20;59.40;;;;;;5090103;28;20115;-73
2022/04/01 09:17:46;;;;;;;1.98;1.02;;;12.40;58.30;;;;;;5092942;28;20020;-73
2022/04/01 09:20:14;;;;;;;2.83;1.07;;;12.70;57.40;;;;;;5092288;28;20071;-73
2022/04/01 09:22:41;;;;;;;3.83;1.10;;;12.60;57.10;;;;;;5089893;28;20028;-73
2022/04/01 09:25:15;;;;;;;4.20;0.93;;;12.40;56.90;;;;;;5089902;28;20051;-73
2022/04/01 09:27:40;;;;;;;;;;;12.20;57.10;;;;;;5090540;28;20034;-73
2022/04/01 09:30:09;;;;;;;3.70;1.13;;;12.30;57.10;;;;;;5090086;28;19908;-73
2022/04/01 09:32:39;;;;;;;2.55;1.23;;;12.40;56.90;;;;;;5091105;28;20111;-73
2022/04/01 09:35:07;;;;;;;3.53;1.15;;;12.50;55.80;;;;;;5091332;28;20127;-73
2022/04/01 09:37:41;;;;;;;3.00;1.10;;;12.70;56.30;;;;;;5090160;28;20028;-72
2022/04/01 09:40:08;;;;;;;3.15;1.17;;;12.60;55.30;;;;;;5090187;28;20024;-72
2022/04/01 09:42:34;;;;;;;1.90;0.85;;;12.40;53.00;;;;;;5072071;28;20020;-73
2022/04/01 09:45:00;;;;;;;3.63;1.10;;;12.30;54.60;;;;;;5091456;28;20031;-72
2022/04/01 09:47:26;;;;;;;3.55;1.70;;;12.30;54.50;;;;;;5092675;28;20031;-72
2022/04/01 09:49:54;;;;;;;2.85;1.20;;;12.20;52.80;;;;;;5090000;28;20039;-73
2022/04/01 09:52:22;;;;;;;4.55;1.20;;;12.20;53.50;;;;;;5089888;28;20408;-72
2022/04/01 09:54:50;;;;;;;4.20;1.10;;;12.40;53.40;;;;;;5089283;28;20529;-73
2022/04/01 09:57:18;;;;;;;2.55;1.10;;;12.60;54.10;;;;;;5090208;28;20023;-73
2022/04/01 09:59:45;;;;;;;2.35;1.00;;;12.50;53.30;;;;;;5090492;28;20035;-72
2022/04/01 10:02:11;;;;;;;2.55;0.95;;;12.50;51.60;;;;;;5092247;28;20426;-73
2022/04/01 10:04:37;;;;;;;3.78;1.05;;;12.60;52.30;;;;;;5089168;28;20052;-72
2022/04/01 10:07:03;;;;;;;3.60;0.90;;;12.80;53.50;;;;;;5070813;28;20215;-73
2022/04/01 10:09:30;;;;;;;2.35;0.90;;;12.80;52.90;;;;;;5089479;28;20093;-72
2022/04/01 10:12:00;;;;;;;2.95;0.90;;;13.00;52.70;;;;;;5089288;28;20028;-73
2022/04/01 10:14:27;;;;;;;6.38;2.17;;;12.80;52.30;;;;;;5092324;28;20524;-73
2022/04/01 10:16:55;;;;;;;3.13;0.88;;;12.60;52.10;;;;;;5071779;28;20104;-72
2022/04/01 10:19:32;;;;;;;1.77;1.10;;;12.60;53.10;;;;;;5088951;28;20028;-73
2022/04/01 10:21:59;;;;;;;2.10;0.90;;;12.50;51.70;;;;;;5069705;28;20024;-73
2022/04/01 10:24:52;;;;;;;3.58;1.20;;;12.30;52.40;;;;;;5091104;28;20028;-71
2022/04/01 10:27:37;;;;;;;2.92;1.20;;;12.10;51.40;;;;;;5080504;28;20023;-70
2022/04/01 10:30:05;;;;;;;2.50;0.98;;;12.20;53.00;;;;;;5070403;28;20028;-71
2022/04/01 10:32:40;;;;;;;4.60;1.00;;;12.50;52.60;;;;;;5089087;28;20028;-71
2022/04/01 10:35:08;;;;;;;2.42;0.90;;;12.40;51.40;;;;;;5089307;28;20492;-71
2022/04/01 10:37:35;;;;;;;3.17;0.90;;;12.50;52.70;;;;;;5086941;28;20024;-72
2022/04/01 10:40:22;;;;;;;4.78;0.90;;;12.40;51.60;;;;;;5086944;28;20024;-76
2022/04/01 10:42:48;;;;;;;2.90;0.85;;;12.70;51.60;;;;;;5088472;28;20550;-74
2022/04/01 10:45:17;;;;;;;3.05;1.00;;;12.70;50.90;;;;;;5087744;28;20362;-75
2022/04/01 10:54:00;;;;;;;;;;;12.80;49.00;;;;;;5072781;28;20066;-74
2022/04/01 10:56:26;;;;;;;2.30;1.02;;;12.60;49.10;;;;;;5089751;28;19961;-74
2022/04/01 10:59:13;;;;;;;1.98;0.90;;;12.60;50.10;;;;;;5089245;28;20052;-74
2022/04/01 11:01:43;;;;;;;2.95;1.30;;;12.70;49.50;;;;;;5086326;28;20103;-74
2022/04/01 11:04:12;;;;;;;2.67;1.08;;;12.90;50.10;;;;;;5088821;28;20043;-74
2022/04/01 11:07:01;;;;;;;1.85;0.80;;;12.70;49.80;;;;;;5086830;28;20032;-75
2022/04/01 11:09:49;;;;;;;3.15;1.00;;;12.90;51.20;;;;;;5087634;28;20058;-73
2022/04/01 11:12:23;;;;;;;2.83;1.00;;;13.10;49.10;;;;;;5088045;28;20039;-73
2022/04/01 11:15:14;;;;;;;2.97;1.00;;;13.00;49.30;;;;;;5088144;28;20657;-74
2022/04/01 11:17:49;;;;;;;2.30;0.90;;;12.90;50.00;;;;;;5069329;28;20503;-74
2022/04/01 11:20:18;;;;;;;3.88;1.10;;;13.20;48.70;;;;;;5091088;28;20051;-73
2022/04/01 11:22:46;;;;;;;3.42;1.27;;;13.60;48.70;;;;;;5087912;28;20037;-76
2022/04/01 11:25:22;;;;;;;2.40;0.90;;;13.40;47.60;;;;;;5086662;28;20107;-76
2022/04/01 11:28:05;;;;;;;2.10;0.93;;;13.20;48.50;;;;;;5085279;28;20031;-76
2022/04/01 11:30:40;;;;;;;1.58;0.90;;;13.20;47.80;;;;;;5078852;28;20020;-73
2022/04/01 11:33:12;;;;;;;1.67;0.90;;;13.30;48.10;;;;;;5082721;28;20099;-76
2022/04/01 11:35:59;;;;;;;3.80;1.13;;;13.10;48.40;;;;;;5078857;28;20071;-75
2022/04/01 11:38:28;;;;;;;1.42;1.00;;;13.00;47.50;;;;;;5080560;28;20036;-75
2022/04/01 11:40:56;;;;;;;1.88;0.95;;;12.90;48.80;;;;;;5085560;28;20020;-76
2022/04/01 11:43:24;;;;;;;3.75;0.95;;;12.70;49.50;;;;;;5078376;28;20142;-78
2022/04/01 11:45:57;;;;;;;2.88;0.90;;;12.50;48.90;;;;;;5075476;28;20020;-73
2022/04/01 11:48:34;;;;;;;2.17;1.00;;;12.50;50.40;;;;;;5074217;28;20035;-73
2022/04/01 11:51:10;;;;;;;2.08;1.00;;;12.60;50.00;;;;;;5080275;28;20699;-73
2022/04/01 11:53:43;;;;;;;3.45;1.00;;;12.60;50.20;;;;;;5088286;28;20037;-73
2022/04/01 11:56:13;;;;;;;1.88;0.90;;;12.50;49.30;;;;;;5088517;28;20036;-72
2022/04/01 11:59:08;;;;;;;2.47;0.85;;;12.40;49.60;;;;;;5076542;28;20100;-72
2022/04/01 12:01:54;;;;;;;2.50;1.10;;;12.40;48.80;;;;;;5074391;28;20041;-72
2022/04/01 12:04:29;;;;;;;2.05;0.90;;;12.40;49.60;;;;;;5074042;28;20021;-73
2022/04/01 12:09:43;;;;;;;4.10;1.15;;;13.30;51.40;;;;;;5075719;28;20077;-72
2022/04/01 12:12:09;;;;;;;4.82;1.60;;;13.40;48.80;;;;;;5085678;28;20032;-72
2022/04/01 12:14:37;;;;;;;2.30;1.00;;;13.20;48.70;;;;;;5084651;28;20568;-72
2022/04/01 12:17:07;;;;;;;3.30;0.93;;;13.20;47.80;;;;;;5075023;28;20111;-73
2022/04/01 12:19:33;;;;;;;2.92;1.20;;;13.40;49.30;;;;;;5081152;28;20031;-73
2022/04/01 12:22:02;;;;;;;2.50;0.80;;;13.40;48.10;;;;;;5081460;28;20025;-73
2022/04/01 12:24:30;;;;;;;3.80;0.98;;;13.60;47.80;;;;;;5075530;28;20028;-73
2022/04/01 12:26:59;;;;;;;3.47;1.10;;;13.50;49.60;;;;;;5071187;28;20099;-73
2022/04/01 12:29:26;;;;;;;2.97;0.90;;;13.40;47.80;;;;;;5073497;28;20052;-73
2022/04/01 12:31:55;;;;;;;2.38;0.88;;;13.40;47.10;;;;;;5078916;28;20032;-72
2022/04/01 12:34:21;;;;;;;3.17;0.93;;;13.10;46.60;;;;;;5083310;28;20115;-72
2022/04/01 12:37:03;;;;;;;3.13;1.00;;;12.90;48.20;;;;;;5087183;28;20035;-73
2022/04/01 12:39:31;;;;;;;5.43;0.90;;;12.80;48.10;;;;;;5078596;28;20455;-73
2022/04/01 12:42:00;;;;;;;3.22;0.95;;;12.80;47.40;;;;;;5058268;28;20025;-73
2022/04/01 12:44:33;;;;;;;2.55;1.10;;;12.70;48.20;;;;;;5058405;28;20461;-73
2022/04/01 12:47:03;;;;;;;3.10;0.90;;;12.70;47.80;;;;;;5088221;28;20032;-72
2022/04/01 12:49:33;;;;;;;3.45;1.20;;;12.40;47.20;;;;;;5086563;28;20040;-72
2022/04/01 12:52:13;;;;;;;4.20;1.00;;;12.40;48.00;;;;;;5086894;28;20043;-72
2022/04/01 12:54:41;;;;;;;4.03;0.85;;;12.40;47.30;;;;;;5087604;28;20509;-73
2022/04/01 12:57:10;;;;;;;6.30;1.05;;;12.40;46.60;;;;;;5075588;28;20052;-72
2022/04/01 12:59:41;;;;;;;2.88;0.90;;;12.30;47.00;;;;;;5089821;28;20020;-72
2022/04/01 13:02:12;;;;;;;7.35;1.08;;;12.10;47.90;;;;;;5060662;28;20024;-72
2022/04/01 13:04:39;;;;;;;5.30;1.20;;;12.20;48.00;;;;;;5078560;28;20086;-72
2022/04/01 13:07:12;;;;;;;3.17;1.08;;;12.20;47.20;;;;;;5081184;28;20016;-74
2022/04/01 13:09:53;;;;;;;2.53;0.82;;;12.40;47.40;;;;;;5089255;28;20111;-73
2022/04/01 13:12:28;;;;;;;3.08;1.10;;;12.50;47.70;;;;;;5084589;28;20032;-73
2022/04/01 13:15:00;;;;;;;1.90;1.00;;;12.90;48.30;;;;;;5053840;28;20041;-72
2022/04/01 13:17:27;;;;;;;3.17;1.13;;;13.00;49.40;;;;;;5073361;28;20025;-73
2022/04/01 13:19:53;;;;;;;3.92;1.00;;;13.30;51.10;;;;;;5083054;28;20159;-74